Time;durP1;ratioP1;P1;durP2;ratioP2;P2;SDS_P1;SDS_P2;PMS_P1;PMS_P2;Temp;Humidity;BMP_temperature;BMP_pressure;BME280_temperature;BME280_humidity;BME280_pressure;Samples;Min_cycle;Max_cycle;Signal;HPM_P1;HPM_P2
2021/04/14 00:00:54;;;;;;;13.13;1.70;;;1.40;99.90;;;;;;4869307;28;20087;-88
2021/04/14 00:03:20;;;;;;;22.23;1.65;;;1.40;99.90;;;;;;4866012;28;20092;-87
2021/04/14 00:05:43;;;;;;;8.80;1.33;;;1.40;99.90;;;;;;4862368;28;20138;-90
2021/04/14 00:08:07;;;;;;;14.48;2.85;;;;;;;;;;4871282;28;20601;-88
2021/04/14 00:10:32;;;;;;;19.77;1.55;;;1.30;99.90;;;;;;4872501;28;20489;-88
2021/04/14 00:12:54;;;;;;;10.95;1.92;;;1.30;99.90;;;;;;4871543;28;20091;-90
2021/04/14 00:15:22;;;;;;;12.38;1.35;;;1.30;99.90;;;;;;4866336;28;20145;-88
2021/04/14 00:17:45;;;;;;;18.42;1.90;;;1.30;99.90;;;;;;4879807;28;20137;-89
2021/04/14 00:20:10;;;;;;;11.30;1.02;;;1.30;99.90;;;;;;4862526;28;20087;-87
2021/04/14 00:22:33;;;;;;;11.00;1.45;;;;;;;;;;4869674;28;20523;-88
2021/04/14 00:24:56;;;;;;;10.95;2.00;;;1.20;99.90;;;;;;4870076;28;20532;-88
2021/04/14 00:27:19;;;;;;;5.82;1.35;;;1.10;99.90;;;;;;4866707;28;20194;-85
2021/04/14 00:29:41;;;;;;;13.32;1.65;;;1.00;99.90;;;;;;4863522;28;20088;-88
2021/04/14 00:32:05;;;;;;;10.70;1.67;;;;;;;;;;4865303;28;20134;-88
2021/04/14 00:34:28;;;;;;;7.00;1.20;;;0.90;99.90;;;;;;4872468;28;20084;-88
2021/04/14 00:36:51;;;;;;;12.23;1.25;;;0.90;99.90;;;;;;4868931;28;20162;-87
2021/04/14 00:39:16;;;;;;;21.55;2.00;;;0.90;99.90;;;;;;4872623;28;20095;-88
2021/04/14 00:41:40;;;;;;;11.82;0.88;;;0.80;99.90;;;;;;4872733;28;20430;-88
2021/04/14 00:44:04;;;;;;;10.25;1.20;;;0.80;99.90;;;;;;4872713;28;20093;-89
2021/04/14 00:46:28;;;;;;;19.42;1.40;;;0.80;99.90;;;;;;4871195;28;20087;-86
2021/04/14 00:48:50;;;;;;;6.10;1.27;;;0.80;99.90;;;;;;4869380;28;20091;-85
2021/04/14 00:51:13;;;;;;;9.98;1.30;;;0.80;99.90;;;;;;4870483;28;20104;-88
2021/04/14 00:53:35;;;;;;;8.85;1.88;;;0.70;99.90;;;;;;4872655;28;20172;-88
2021/04/14 00:55:58;;;;;;;7.38;1.17;;;0.70;99.90;;;;;;4871596;28;20092;-86
2021/04/14 00:58:21;;;;;;;17.27;1.88;;;0.70;99.90;;;;;;4858619;28;20087;-88
2021/04/14 01:00:46;;;;;;;16.15;1.42;;;0.70;99.90;;;;;;4869834;28;20112;-86
2021/04/14 01:03:18;;;;;;;9.23;1.73;;;0.70;99.90;;;;;;4868927;28;20095;-87
2021/04/14 01:05:42;;;;;;;21.75;2.00;;;0.70;99.90;;;;;;4866112;28;20519;-88
2021/04/14 01:08:05;;;;;;;16.17;1.70;;;0.70;99.90;;;;;;4871125;28;20536;-88
2021/04/14 01:10:28;;;;;;;15.80;2.35;;;0.70;99.90;;;;;;4868855;28;20089;-87
2021/04/14 01:12:52;;;;;;;14.90;1.30;;;0.60;99.90;;;;;;4869207;28;20089;-88
2021/04/14 01:15:22;;;;;;;17.70;1.70;;;0.60;99.90;;;;;;4860201;28;20085;-87
2021/04/14 01:17:45;;;;;;;7.80;1.15;;;0.60;99.90;;;;;;4869234;28;20084;-88
2021/04/14 01:20:09;;;;;;;13.00;1.50;;;0.60;99.90;;;;;;4870181;28;20084;-88
2021/04/14 01:22:32;;;;;;;6.57;1.30;;;0.50;99.90;;;;;;4870385;28;20092;-88
2021/04/14 01:24:55;;;;;;;7.88;1.35;;;0.50;99.90;;;;;;4869433;28;20093;-88
2021/04/14 01:27:17;;;;;;;10.05;1.13;;;0.40;99.90;;;;;;4870153;28;20097;-86
2021/04/14 01:29:40;;;;;;;16.98;1.70;;;0.50;99.90;;;;;;4873565;28;20198;-87
2021/04/14 01:32:02;;;;;;;14.02;1.33;;;0.40;99.90;;;;;;4871066;28;20098;-88
2021/04/14 01:34:25;;;;;;;23.17;2.35;;;0.50;99.90;;;;;;4867963;28;20602;-87
2021/04/14 01:36:48;;;;;;;14.70;1.88;;;;;;;;;;4868184;28;20107;-89
2021/04/14 01:39:12;;;;;;;17.33;1.48;;;;;;;;;;4871906;28;20088;-86
2021/04/14 01:41:36;;;;;;;8.98;1.58;;;0.60;99.90;;;;;;4869572;28;20145;-88
2021/04/14 01:43:59;;;;;;;17.27;1.98;;;0.50;99.90;;;;;;4870972;28;20098;-88
2021/04/14 01:46:21;;;;;;;15.93;1.88;;;;;;;;;;4867977;28;20093;-86
2021/04/14 01:48:44;;;;;;;12.02;1.55;;;0.40;99.90;;;;;;4870473;28;20093;-88
2021/04/14 01:51:07;;;;;;;5.57;1.20;;;0.40;99.90;;;;;;4869608;28;20537;-88
2021/04/14 01:53:29;;;;;;;10.50;1.40;;;0.30;99.90;;;;;;4865047;28;20097;-88
2021/04/14 01:55:53;;;;;;;16.58;1.52;;;;;;;;;;4870145;28;20093;-88
2021/04/14 01:58:17;;;;;;;17.95;1.77;;;0.20;99.90;;;;;;4869487;28;20090;-89
2021/04/14 02:00:44;;;;;;;10.93;1.48;;;0.20;99.90;;;;;;4868412;28;20460;-88
2021/04/14 02:03:07;;;;;;;33.05;2.20;;;0.20;99.90;;;;;;4869416;28;20104;-89
2021/04/14 02:05:31;;;;;;;21.50;2.00;;;0.10;99.90;;;;;;4872355;28;20099;-87
2021/04/14 02:07:54;;;;;;;7.30;1.50;;;0.10;99.90;;;;;;4869180;28;20097;-87
2021/04/14 02:10:16;;;;;;;7.97;1.23;;;0.00;99.90;;;;;;4870476;28;20128;-88
2021/04/14 02:12:40;;;;;;;13.07;1.60;;;;;;;;;;4870324;28;20089;-87
2021/04/14 02:15:05;;;;;;;19.15;1.45;;;-0.10;99.90;;;;;;4869866;28;20096;-89
2021/04/14 02:17:27;;;;;;;22.75;2.28;;;-0.10;99.90;;;;;;4867729;28;20095;-87
2021/04/14 02:19:50;;;;;;;9.23;1.52;;;-0.20;99.90;;;;;;4862329;28;20087;-87
2021/04/14 02:22:13;;;;;;;8.65;1.42;;;-0.30;99.90;;;;;;4869990;28;20904;-89
2021/04/14 02:24:36;;;;;;;13.48;1.40;;;-0.40;99.90;;;;;;4857187;28;20539;-87
2021/04/14 02:27:01;;;;;;;7.88;1.40;;;-0.40;99.90;;;;;;4870846;28;20143;-88
2021/04/14 02:29:25;;;;;;;20.25;1.13;;;;;;;;;;4856088;28;20105;-89
2021/04/14 02:31:47;;;;;;;12.00;1.52;;;-0.50;99.90;;;;;;4859255;28;20101;-87
2021/04/14 02:34:12;;;;;;;11.60;1.42;;;;;;;;;;4855528;28;20098;-88
2021/04/14 02:36:35;;;;;;;7.63;1.55;;;-0.70;99.90;;;;;;4858680;28;20092;-88
2021/04/14 02:38:58;;;;;;;13.63;1.60;;;-0.50;99.90;;;;;;4851425;28;20088;-86
2021/04/14 02:41:20;;;;;;;8.82;1.70;;;-0.50;99.90;;;;;;4858474;28;20154;-89
2021/04/14 02:43:43;;;;;;;10.95;1.65;;;;;;;;;;4866265;28;20127;-86
2021/04/14 02:46:08;;;;;;;15.30;1.48;;;;;;;;;;4870287;28;20091;-88
2021/04/14 02:48:31;;;;;;;11.40;1.45;;;;;;;;;;4867415;28;20090;-89
2021/04/14 02:50:53;;;;;;;5.57;1.65;;;-0.80;99.90;;;;;;4869146;28;20105;-88
2021/04/14 02:53:16;;;;;;;14.18;1.60;;;;;;;;;;4868494;28;20558;-88
2021/04/14 02:55:40;;;;;;;8.30;1.52;;;-0.90;99.90;;;;;;4868513;28;20715;-88
2021/04/14 02:58:02;;;;;;;13.57;1.50;;;;;;;;;;4861723;28;20543;-85
2021/04/14 03:00:28;;;;;;;16.55;1.73;;;-0.90;99.90;;;;;;4869502;28;20084;-88
2021/04/14 03:02:52;;;;;;;11.38;1.05;;;-0.90;99.90;;;;;;4856164;28;20115;-87
2021/04/14 03:05:20;;;;;;;18.55;1.85;;;-0.80;99.90;;;;;;4863666;28;20523;-87
2021/04/14 03:07:43;;;;;;;8.63;1.55;;;-0.80;99.90;;;;;;4867805;28;20114;-87
2021/04/14 03:10:09;;;;;;;17.58;2.15;;;-0.80;99.90;;;;;;4867690;28;20546;-88
2021/04/14 03:12:32;;;;;;;7.65;1.45;;;-0.90;99.90;;;;;;4868502;28;20104;-88
2021/04/14 03:14:55;;;;;;;15.30;1.70;;;-0.90;99.90;;;;;;4868834;28;20817;-87
2021/04/14 03:17:17;;;;;;;7.55;1.35;;;-1.00;99.90;;;;;;4867970;28;20095;-88
2021/04/14 03:19:41;;;;;;;7.70;1.13;;;-1.10;99.90;;;;;;4868809;28;20485;-87
2021/04/14 03:22:05;;;;;;;11.90;2.13;;;-1.10;99.90;;;;;;4859599;28;20106;-88
2021/04/14 03:24:28;;;;;;;10.93;1.70;;;;;;;;;;4857664;28;20445;-88
2021/04/14 03:26:51;;;;;;;10.48;1.90;;;-1.20;99.90;;;;;;4859011;28;20095;-88
2021/04/14 03:29:14;;;;;;;14.00;2.17;;;-1.30;99.90;;;;;;4854180;28;20134;-87
2021/04/14 03:31:37;;;;;;;12.57;1.55;;;-1.40;99.90;;;;;;4857194;28;20141;-86
2021/04/14 03:33:59;;;;;;;8.15;1.60;;;-1.50;99.90;;;;;;4880026;28;20099;-85
2021/04/14 03:36:22;;;;;;;11.05;2.20;;;-1.50;99.90;;;;;;4869204;28;20088;-88
2021/04/14 03:38:45;;;;;;;11.30;2.25;;;-1.60;99.90;;;;;;4868725;28;20112;-87
2021/04/14 03:41:09;;;;;;;15.88;1.83;;;-1.50;99.90;;;;;;4872440;28;20107;-87
2021/04/14 03:43:31;;;;;;;6.90;1.45;;;-1.30;99.90;;;;;;4870588;28;20458;-87
2021/04/14 03:45:58;;;;;;;15.43;2.03;;;-1.00;99.90;;;;;;4871463;28;20480;-87
2021/04/14 03:48:22;;;;;;;8.90;1.58;;;-0.90;99.90;;;;;;4861575;28;20095;-87
2021/04/14 03:50:44;;;;;;;9.30;1.90;;;-0.80;99.90;;;;;;4872312;28;20702;-86
2021/04/14 03:53:16;;;;;;;18.67;1.85;;;-0.80;99.90;;;;;;4870215;28;20229;-88
2021/04/14 03:55:40;;;;;;;12.75;2.38;;;-0.60;99.90;;;;;;4870589;28;20110;-86
2021/04/14 03:58:03;;;;;;;6.10;1.60;;;-0.60;99.90;;;;;;4872472;28;20101;-86
2021/04/14 04:00:26;;;;;;;11.45;2.35;;;-0.60;99.90;;;;;;4870368;28;20097;-89
2021/04/14 04:02:49;;;;;;;6.80;1.77;;;-0.60;99.90;;;;;;4848048;28;20092;-87
2021/04/14 04:05:12;;;;;;;24.10;1.80;;;-0.60;99.90;;;;;;4871596;28;20142;-86
2021/04/14 04:07:34;;;;;;;16.15;2.40;;;-0.60;99.90;;;;;;4871753;28;20092;-87
2021/04/14 04:09:58;;;;;;;12.15;2.10;;;;;;;;;;4871197;28;20112;-85
2021/04/14 04:12:21;;;;;;;11.18;2.53;;;-0.60;99.90;;;;;;4872591;28;20095;-87
2021/04/14 04:14:47;;;;;;;24.63;3.42;;;-0.60;99.90;;;;;;4871241;28;20158;-86
2021/04/14 04:17:10;;;;;;;16.80;3.83;;;-0.50;99.90;;;;;;4866827;28;20105;-87
2021/04/14 04:19:32;;;;;;;14.82;3.75;;;-0.50;99.90;;;;;;4870289;28;20096;-85
2021/04/14 04:21:55;;;;;;;14.15;3.67;;;-0.40;99.90;;;;;;4872093;28;20096;-87
2021/04/14 04:24:18;;;;;;;19.95;4.93;;;-0.50;99.90;;;;;;4868715;28;20087;-84
2021/04/14 04:26:41;;;;;;;26.23;6.53;;;-0.40;99.90;;;;;;4863247;28;20445;-87
2021/04/14 04:29:04;;;;;;;27.98;7.00;;;-0.50;99.90;;;;;;4871770;28;20094;-88
2021/04/14 04:31:26;;;;;;;24.58;5.85;;;-0.40;99.90;;;;;;4864274;28;20094;-87
2021/04/14 04:33:49;;;;;;;30.55;7.05;;;-0.50;99.90;;;;;;4869811;28;20115;-85
2021/04/14 04:36:11;;;;;;;30.35;6.72;;;-0.50;99.90;;;;;;4861698;28;20080;-88
2021/04/14 04:38:34;;;;;;;23.02;6.03;;;-0.60;99.90;;;;;;4871737;28;20195;-87
2021/04/14 04:40:57;;;;;;;26.13;6.80;;;-0.70;99.90;;;;;;4871490;28;20094;-87
2021/04/14 04:43:21;;;;;;;27.77;6.28;;;-0.70;99.90;;;;;;4869963;28;20088;-87
2021/04/14 04:45:43;;;;;;;25.23;6.10;;;-0.60;99.90;;;;;;4870733;28;20517;-88
2021/04/14 04:48:07;;;;;;;36.03;4.78;;;-0.50;99.90;;;;;;4870808;28;20580;-85
2021/04/14 04:50:31;;;;;;;15.70;4.60;;;-0.30;99.90;;;;;;4871173;28;20090;-84
2021/04/14 04:52:55;;;;;;;18.48;4.47;;;0.00;99.90;;;;;;4868977;28;20126;-86
2021/04/14 04:55:17;;;;;;;20.77;4.82;;;0.50;99.90;;;;;;4871447;28;20450;-87
2021/04/14 04:57:40;;;;;;;35.60;4.45;;;1.10;99.90;;;;;;4870375;28;20527;-87
2021/04/14 05:00:06;;;;;;;14.60;3.55;;;1.70;99.90;;;;;;4870939;28;20100;-87
2021/04/14 05:02:29;;;;;;;25.23;3.35;;;2.20;99.90;;;;;;4871410;28;20087;-87
2021/04/14 05:04:53;;;;;;;14.35;2.83;;;2.50;99.90;;;;;;4862823;28;20166;-87
2021/04/14 05:07:15;;;;;;;11.63;2.67;;;2.80;99.90;;;;;;4871151;28;20088;-88
2021/04/14 05:09:38;;;;;;;13.68;2.50;;;3.00;99.90;;;;;;4873388;28;20095;-88
2021/04/14 05:12:00;;;;;;;11.73;1.98;;;3.30;99.90;;;;;;4875458;28;20099;-88
2021/04/14 05:14:23;;;;;;;17.23;1.95;;;3.70;99.90;;;;;;4860063;28;20091;-87
2021/04/14 05:16:46;;;;;;;7.35;1.70;;;4.00;99.90;;;;;;4858294;28;20094;-85
2021/04/14 05:19:09;;;;;;;11.00;1.58;;;4.40;99.90;;;;;;4860918;28;20087;-90
2021/04/14 05:21:33;;;;;;;15.23;2.58;;;4.60;99.90;;;;;;4862951;28;20078;-87
2021/04/14 05:23:56;;;;;;;9.55;1.92;;;4.60;99.90;;;;;;4858010;28;20082;-85
2021/04/14 05:26:18;;;;;;;12.48;1.98;;;4.70;99.90;;;;;;4860764;28;20094;-88
2021/04/14 05:28:42;;;;;;;9.40;1.58;;;4.60;99.90;;;;;;4850500;28;20117;-89
2021/04/14 05:31:05;;;;;;;18.92;2.38;;;4.80;99.90;;;;;;4861330;28;20596;-85
2021/04/14 05:33:28;;;;;;;10.50;1.38;;;5.00;99.90;;;;;;4861682;28;20082;-88
2021/04/14 05:35:52;;;;;;;10.10;1.88;;;5.20;99.90;;;;;;4868964;28;20461;-86
2021/04/14 05:38:14;;;;;;;9.77;1.48;;;5.10;99.90;;;;;;4870521;28;20093;-86
2021/04/14 05:40:38;;;;;;;14.52;1.90;;;5.10;99.90;;;;;;4858751;28;20125;-88
2021/04/14 05:43:13;;;;;;;11.80;1.67;;;5.20;99.90;;;;;;4858911;28;20086;-88
2021/04/14 05:45:36;;;;;;;9.45;1.30;;;;;;;;;;4869908;28;20092;-88
2021/04/14 05:47:59;;;;;;;8.15;1.27;;;5.30;99.90;;;;;;4869591;28;20130;-87
2021/04/14 05:50:25;;;;;;;7.95;1.50;;;5.20;99.90;;;;;;4870372;28;20139;-88
2021/04/14 05:52:47;;;;;;;13.55;2.35;;;5.10;99.90;;;;;;4870752;28;20127;-89
2021/04/14 05:55:12;;;;;;;11.45;2.28;;;5.30;99.90;;;;;;4870096;28;20503;-88
2021/04/14 05:57:36;;;;;;;9.37;1.73;;;;;;;;;;4868780;28;20090;-88
2021/04/14 05:59:58;;;;;;;9.23;1.65;;;;;;;;;;4870160;28;20085;-87
2021/04/14 06:02:21;;;;;;;13.23;1.92;;;5.80;99.90;;;;;;4867708;28;20089;-88
2021/04/14 06:04:43;;;;;;;9.40;2.03;;;5.90;99.90;;;;;;4869384;28;20151;-85
2021/04/14 06:07:07;;;;;;;10.25;2.13;;;5.40;99.90;;;;;;4870188;28;22651;-89
2021/04/14 06:09:29;;;;;;;14.75;2.40;;;5.00;99.90;;;;;;4869841;28;20102;-90
2021/04/14 06:11:52;;;;;;;15.68;2.55;;;5.00;99.90;;;;;;4868723;28;20122;-88
2021/04/14 06:14:14;;;;;;;12.07;2.15;;;4.90;99.90;;;;;;4870345;28;20092;-87
2021/04/14 06:16:37;;;;;;;10.73;2.30;;;4.80;99.90;;;;;;4869427;28;20091;-87
2021/04/14 06:19:00;;;;;;;12.40;2.58;;;4.80;99.90;;;;;;4866975;28;20157;-87
2021/04/14 06:21:25;;;;;;;9.27;2.63;;;4.70;99.90;;;;;;4870608;28;20089;-87
2021/04/14 06:23:49;;;;;;;15.00;2.67;;;;;;;;;;4863464;28;20084;-89
2021/04/14 06:26:17;;;;;;;15.80;2.58;;;4.90;99.90;;;;;;4856500;28;20543;-87
2021/04/14 06:28:41;;;;;;;10.18;2.05;;;5.10;99.90;;;;;;4858579;28;20121;-87
2021/04/14 06:31:05;;;;;;;9.10;2.13;;;5.20;99.90;;;;;;4861436;28;20158;-87
2021/04/14 06:33:28;;;;;;;14.27;1.75;;;5.20;99.90;;;;;;4869668;28;20091;-89
2021/04/14 06:35:52;;;;;;;13.55;2.45;;;5.10;99.90;;;;;;4869836;28;20084;-88
2021/04/14 06:38:18;;;;;;;9.30;2.47;;;;;;;;;;4866756;28;20153;-88
2021/04/14 06:41:04;;;;;;;23.40;3.15;;;4.80;99.90;;;;;;4869343;28;20091;-88
2021/04/14 06:43:40;;;;;;;10.15;2.88;;;6.50;99.90;;;;;;4867493;28;20110;-89
2021/04/14 06:46:08;;;;;;;11.43;2.37;;;6.70;99.90;;;;;;4868569;28;20110;-88
2021/04/14 06:48:40;;;;;;;14.15;2.47;;;6.90;99.90;;;;;;4868803;28;20497;-88
2021/04/14 06:51:09;;;;;;;12.07;2.00;;;7.00;99.90;;;;;;4867461;28;20081;-88
2021/04/14 06:53:42;;;;;;;11.13;2.35;;;7.30;99.90;;;;;;4868400;28;20088;-89
2021/04/14 06:56:09;;;;;;;8.73;2.10;;;7.70;99.90;;;;;;4868258;28;20093;-88
2021/04/14 06:58:38;;;;;;;10.35;2.20;;;8.40;99.90;;;;;;4867100;28;20093;-89
2021/04/14 07:01:03;;;;;;;12.60;2.28;;;9.40;99.90;;;;;;4858464;28;20511;-88
2021/04/14 07:03:29;;;;;;;5.97;1.83;;;10.00;99.90;;;;;;4861469;28;20096;-88
2021/04/14 07:05:56;;;;;;;13.98;2.45;;;10.20;99.90;;;;;;4877371;28;20082;-87
2021/04/14 07:08:22;;;;;;;9.82;2.50;;;9.40;99.90;;;;;;4857901;28;20077;-90
2021/04/14 07:10:45;;;;;;;6.88;2.22;;;8.70;99.90;;;;;;4866840;28;20085;-90
2021/04/14 07:13:11;;;;;;;5.68;2.42;;;8.10;99.90;;;;;;4868883;28;20084;-87
2021/04/14 07:15:34;;;;;;;9.45;2.78;;;7.80;99.90;;;;;;4868644;28;20537;-88
2021/04/14 07:18:09;;;;;;;9.20;2.50;;;8.60;99.90;;;;;;4867587;28;20085;-89
2021/04/14 07:20:37;;;;;;;9.30;2.10;;;9.20;99.90;;;;;;4869669;28;20087;-89
2021/04/14 07:23:20;;;;;;;8.93;2.35;;;9.40;99.90;;;;;;4872660;28;20094;-89
2021/04/14 07:25:51;;;;;;;7.05;2.33;;;9.60;99.90;;;;;;4864850;28;20079;-86
2021/04/14 07:28:39;;;;;;;6.07;1.90;;;9.40;99.90;;;;;;4857884;28;20093;-90
2021/04/14 07:31:08;;;;;;;6.40;2.10;;;10.20;99.90;;;;;;4855401;28;20104;-89
2021/04/14 07:33:50;;;;;;;6.85;2.72;;;10.10;99.90;;;;;;4881233;28;20086;-88
2021/04/14 07:36:19;;;;;;;6.05;1.98;;;9.30;99.90;;;;;;4859298;28;20084;-88
2021/04/14 07:38:44;;;;;;;8.82;2.20;;;;;;;;;;4865758;28;20142;-89
2021/04/14 07:41:16;;;;;;;7.07;1.80;;;9.10;99.90;;;;;;4867253;28;20146;-89
2021/04/14 07:43:52;;;;;;;10.30;2.67;;;9.30;99.90;;;;;;4867252;28;20083;-90
2021/04/14 07:46:17;;;;;;;6.78;1.90;;;;;;;;;;4849549;28;20098;-88
2021/04/14 07:48:42;;;;;;;5.68;1.30;;;9.30;99.90;;;;;;4867680;28;20166;-88
2021/04/14 07:51:10;;;;;;;7.38;1.98;;;8.60;99.90;;;;;;4867009;28;20116;-89
2021/04/14 07:53:35;;;;;;;9.05;2.28;;;9.40;99.90;;;;;;4868168;28;20705;-90
2021/04/14 07:56:04;;;;;;;4.22;1.55;;;10.70;99.90;;;;;;4867972;28;20096;-90
2021/04/14 07:58:28;;;;;;;7.00;1.92;;;11.60;99.90;;;;;;4867585;28;20078;-89
2021/04/14 08:00:51;;;;;;;11.23;1.90;;;9.50;99.90;;;;;;4868044;28;20090;-88
2021/04/14 08:03:22;;;;;;;8.75;1.85;;;8.50;99.90;;;;;;4867815;28;20624;-90
2021/04/14 08:05:46;;;;;;;5.63;2.00;;;10.00;99.90;;;;;;4857318;28;20083;-89
2021/04/14 08:08:18;;;;;;;4.80;1.60;;;10.50;99.90;;;;;;4870651;28;20140;-89
2021/04/14 08:10:41;;;;;;;9.90;2.05;;;11.60;99.90;;;;;;4860767;28;20077;-89
2021/04/14 08:13:08;;;;;;;7.47;1.60;;;11.60;99.90;;;;;;4869234;28;20100;-90
2021/04/14 08:15:33;;;;;;;5.93;1.60;;;11.50;99.90;;;;;;4868476;28;20198;-91
2021/04/14 08:18:20;;;;;;;5.53;1.23;;;11.20;99.90;;;;;;4865604;28;20101;-90
2021/04/14 08:20:46;;;;;;;7.18;1.45;;;12.00;99.90;;;;;;4860569;28;20084;-90
2021/04/14 08:23:11;;;;;;;2.90;1.70;;;12.60;99.90;;;;;;4869671;28;20049;-91
2021/04/14 08:25:36;;;;;;;4.85;1.50;;;12.70;99.90;;;;;;4867787;28;20088;-92
2021/04/14 08:28:00;;;;;;;5.05;1.60;;;11.10;99.90;;;;;;4870421;28;20049;-90
2021/04/14 08:30:25;;;;;;;5.60;1.15;;;9.20;99.90;;;;;;4871491;28;20175;-90
2021/04/14 08:32:59;;;;;;;2.88;1.02;;;8.70;99.90;;;;;;4865032;28;20111;-90
2021/04/14 08:35:29;;;;;;;4.22;0.70;;;9.20;99.90;;;;;;4879410;28;20476;-89
2021/04/14 08:38:02;;;;;;;1.33;0.68;;;9.90;99.90;;;;;;4869692;28;20535;-89
2021/04/14 08:40:26;;;;;;;2.88;0.70;;;11.50;99.90;;;;;;4858394;28;20121;-86
2021/04/14 08:42:49;;;;;;;3.53;0.80;;;11.20;99.90;;;;;;4859777;28;20167;-90
2021/04/14 08:45:18;;;;;;;1.42;0.60;;;10.60;99.90;;;;;;4866880;28;20084;-89
2021/04/14 08:47:50;;;;;;;3.85;0.68;;;10.30;99.90;;;;;;4869305;28;20091;-89
2021/04/14 08:50:18;;;;;;;3.08;0.28;;;9.90;99.90;;;;;;4868984;28;20081;-93
2021/04/14 08:52:46;;;;;;;1.70;0.63;;;10.60;99.90;;;;;;4870371;28;20557;-93
2021/04/14 08:55:11;;;;;;;4.95;0.90;;;11.10;99.50;;;;;;4859296;28;20515;-90
2021/04/14 08:57:34;;;;;;;;;;;10.60;99.90;;;;;;4867586;28;20520;-91
2021/04/14 09:00:04;;;;;;;1.65;0.30;;;10.80;97.60;;;;;;4871242;28;20335;-88
2021/04/14 09:02:50;;;;;;;1.25;0.50;;;10.90;95.80;;;;;;4829022;28;20089;-92
2021/04/14 09:05:35;;;;;;;1.75;0.73;;;10.50;96.00;;;;;;4808561;28;20520;-88
2021/04/14 09:08:52;;;;;;;1.75;0.40;;;10.50;96.50;;;;;;4805422;28;20089;-89
2021/04/14 09:11:45;;;;;;;2.13;0.30;;;10.40;95.90;;;;;;4815044;28;20085;-88
2021/04/14 09:14:43;;;;;;;1.75;0.28;;;10.90;95.70;;;;;;4803461;28;20345;-91
2021/04/14 09:17:41;;;;;;;1.55;0.47;;;10.10;94.50;;;;;;4817362;28;20085;-92
2021/04/14 09:20:38;;;;;;;0.57;0.20;;;10.40;96.10;;;;;;4804450;28;20799;-90
2021/04/14 09:23:46;;;;;;;4.33;0.70;;;10.60;96.60;;;;;;4810018;28;20091;-92
2021/04/14 09:36:51;;;;;;;4.38;0.82;;;9.70;98.10;;;;;;4815845;28;20170;-90
2021/04/14 09:40:08;;;;;;;4.53;0.80;;;9.10;98.60;;;;;;4811926;28;20097;-88
2021/04/14 10:48:50;;;;;;;3.50;0.85;;;8.50;99.90;;;;;;4832834;28;20090;-88
2021/04/14 10:51:55;;;;;;;2.15;1.00;;;8.10;99.90;;;;;;4842125;28;20085;-90
2021/04/14 10:55:02;;;;;;;2.65;0.90;;;9.20;99.90;;;;;;4838137;28;20222;-91
2021/04/14 10:57:31;;;;;;;1.38;0.60;;;9.50;99.90;;;;;;4900869;28;20089;-90
2021/04/14 11:00:02;;;;;;;3.78;0.63;;;9.90;99.90;;;;;;4900535;28;20091;-92
2021/04/14 11:02:28;;;;;;;0.98;0.55;;;9.10;99.90;;;;;;4906852;28;20082;-89
2021/04/14 11:04:53;;;;;;;0.77;0.68;;;8.70;99.90;;;;;;4903892;28;20081;-88
2021/04/14 11:07:21;;;;;;;1.92;0.93;;;8.50;99.90;;;;;;4895611;28;20089;-90
2021/04/14 11:09:45;;;;;;;2.92;0.70;;;8.60;99.90;;;;;;4903829;28;20124;-90
2021/04/14 11:12:12;;;;;;;4.85;0.60;;;8.50;99.90;;;;;;4898755;28;20086;-85
2021/04/14 11:14:38;;;;;;;0.60;0.40;;;;;;;;;;4903625;28;20107;-88
2021/04/14 11:17:00;;;;;;;;;;;8.60;99.90;;;;;;4906454;28;20139;-88
2021/04/14 11:19:26;;;;;;;1.50;0.68;;;8.40;99.90;;;;;;4904122;28;20011;-86
2021/04/14 11:22:01;;;;;;;3.78;0.60;;;8.10;99.90;;;;;;4902876;28;20179;-87
2021/04/14 11:24:24;;;;;;;1.58;0.60;;;7.80;99.90;;;;;;4901233;28;20093;-88
2021/04/14 11:26:52;;;;;;;2.33;0.43;;;8.00;99.90;;;;;;4903689;28;20093;-90
2021/04/14 11:29:22;;;;;;;2.35;0.52;;;8.10;99.90;;;;;;4890356;28;20452;-90
2021/04/14 11:31:49;;;;;;;1.05;0.50;;;8.80;99.90;;;;;;4896301;28;20085;-88
2021/04/14 11:34:15;;;;;;;1.20;0.60;;;9.50;99.90;;;;;;4901460;28;20084;-88
2021/04/14 11:37:02;;;;;;;2.42;0.70;;;9.50;99.90;;;;;;4890224;28;20089;-90
2021/04/14 11:39:26;;;;;;;1.67;0.63;;;9.10;99.90;;;;;;4882982;28;20092;-91
2021/04/14 11:42:02;;;;;;;8.32;0.50;;;8.80;99.90;;;;;;4890658;28;20146;-85
2021/04/14 11:44:38;;;;;;;0.75;0.60;;;8.30;99.90;;;;;;4900937;28;20081;-89
2021/04/14 11:47:03;;;;;;;2.30;0.70;;;8.30;99.90;;;;;;4891463;28;20470;-90
2021/04/14 11:49:27;;;;;;;2.30;0.57;;;8.10;99.90;;;;;;4900386;28;20151;-90
2021/04/14 11:51:52;;;;;;;2.80;0.52;;;8.40;99.90;;;;;;4897192;28;20808;-89
2021/04/14 11:54:27;;;;;;;1.40;0.60;;;9.20;99.90;;;;;;4889611;28;20085;-90
2021/04/14 11:57:00;;;;;;;2.13;0.65;;;9.30;99.90;;;;;;4890285;28;20081;-86
2021/04/14 11:59:26;;;;;;;1.02;0.63;;;8.70;99.90;;;;;;4893804;28;20081;-86
2021/04/14 12:01:53;;;;;;;;;;;8.30;99.90;;;;;;4893967;28;21078;-88
2021/04/14 12:04:17;;;;;;;2.40;0.63;;;8.00;99.90;;;;;;4871459;28;19966;-90
2021/04/14 12:06:39;;;;;;;1.27;0.50;;;;;;;;;;4888804;28;20082;-90
2021/04/14 12:09:02;;;;;;;1.45;0.60;;;7.70;99.90;;;;;;4876776;28;20086;-87
2021/04/14 12:11:25;;;;;;;1.15;0.35;;;7.60;99.90;;;;;;4893071;28;20090;-89
2021/04/14 12:13:48;;;;;;;1.55;0.80;;;7.80;99.90;;;;;;4893377;28;20093;-88
2021/04/14 12:16:10;;;;;;;2.03;0.88;;;8.40;99.90;;;;;;4891557;28;20093;-90
2021/04/14 12:18:36;;;;;;;2.45;0.80;;;9.10;99.90;;;;;;4887682;28;20440;-92
2021/04/14 12:20:59;;;;;;;3.92;0.60;;;9.50;99.90;;;;;;4889987;28;20078;-90
2021/04/14 12:23:22;;;;;;;2.55;0.60;;;;;;;;;;4888926;28;20094;-90
2021/04/14 12:25:45;;;;;;;1.38;0.45;;;9.20;99.90;;;;;;4892395;28;20093;-91
2021/04/14 12:28:08;;;;;;;0.43;0.30;;;9.50;99.90;;;;;;4880174;28;20499;-85
2021/04/14 12:30:31;;;;;;;0.73;0.40;;;9.30;99.50;;;;;;4889933;28;20119;-87
2021/04/14 12:32:55;;;;;;;5.97;0.60;;;9.10;99.90;;;;;;4880315;28;20100;-89
2021/04/14 12:35:18;;;;;;;1.33;0.52;;;8.80;99.90;;;;;;4892416;28;20189;-90
2021/04/14 12:37:41;;;;;;;1.45;0.40;;;9.00;99.90;;;;;;4887996;28;20090;-89
2021/04/14 12:40:06;;;;;;;1.75;0.60;;;8.50;99.90;;;;;;4889883;28;20195;-84
2021/04/14 12:42:30;;;;;;;2.03;0.43;;;;;;;;;;4889366;28;20089;-88
2021/04/14 12:44:54;;;;;;;4.45;0.65;;;8.40;99.90;;;;;;4890850;28;20430;-89
2021/04/14 12:47:21;;;;;;;4.38;0.60;;;8.20;99.90;;;;;;4892941;28;20449;-89
2021/04/14 12:49:43;;;;;;;3.97;0.60;;;8.40;99.90;;;;;;4864218;28;20073;-88
2021/04/14 12:52:17;;;;;;;2.40;0.60;;;8.90;99.90;;;;;;4873629;28;20095;-86
2021/04/14 12:54:41;;;;;;;2.85;0.60;;;9.20;99.90;;;;;;4886281;28;20143;-85
2021/04/14 12:57:06;;;;;;;2.60;0.68;;;8.80;99.90;;;;;;4887991;28;20081;-86
2021/04/14 12:59:32;;;;;;;2.95;0.98;;;8.20;99.90;;;;;;4894207;28;20147;-88
2021/04/14 13:02:01;;;;;;;1.40;0.50;;;8.00;99.90;;;;;;4891155;28;20086;-89
2021/04/14 13:04:31;;;;;;;2.25;0.65;;;8.60;99.90;;;;;;4863155;28;20089;-90
2021/04/14 13:06:58;;;;;;;1.77;0.50;;;9.10;99.90;;;;;;4879553;28;20102;-88
2021/04/14 13:09:23;;;;;;;4.93;0.80;;;9.00;99.90;;;;;;4868934;28;21559;-89
2021/04/14 13:11:53;;;;;;;0.45;0.40;;;8.30;99.90;;;;;;4889932;28;20533;-89
2021/04/14 13:14:16;;;;;;;2.13;0.63;;;8.00;99.90;;;;;;4889095;28;20090;-89
2021/04/14 13:16:45;;;;;;;7.35;0.50;;;8.00;99.90;;;;;;4889879;28;20622;-90
2021/04/14 13:19:07;;;;;;;1.77;0.80;;;8.70;99.90;;;;;;4888029;28;20085;-90
2021/04/14 13:21:34;;;;;;;2.08;0.63;;;8.80;99.90;;;;;;4892440;28;20089;-87
2021/04/14 13:24:00;;;;;;;1.92;0.60;;;;;;;;;;4890166;28;20556;-87
2021/04/14 13:26:32;;;;;;;1.88;0.63;;;8.20;99.90;;;;;;4890493;28;20086;-88
2021/04/14 13:29:03;;;;;;;1.80;0.70;;;7.90;99.90;;;;;;4872991;28;20537;-89
2021/04/14 13:31:34;;;;;;;2.45;0.70;;;7.80;99.90;;;;;;4870929;28;20092;-91
2021/04/14 13:34:02;;;;;;;0.60;0.50;;;8.00;99.90;;;;;;4883345;28;20085;-89
2021/04/14 13:36:27;;;;;;;1.05;0.70;;;8.30;99.90;;;;;;4888656;28;20475;-90
2021/04/14 13:38:54;;;;;;;1.35;0.70;;;8.30;99.90;;;;;;4889366;28;20082;-90
2021/04/14 13:41:22;;;;;;;0.93;0.50;;;8.10;99.90;;;;;;4887977;28;20100;-90
2021/04/14 13:43:48;;;;;;;2.35;0.88;;;7.80;99.90;;;;;;4872701;28;20553;-88
2021/04/14 13:46:15;;;;;;;5.68;0.80;;;8.00;99.90;;;;;;4889620;28;20209;-88
2021/04/14 13:48:57;;;;;;;3.75;0.63;;;7.90;99.90;;;;;;4887453;28;20089;-91
2021/04/14 13:51:23;;;;;;;2.47;0.73;;;8.00;99.90;;;;;;4885661;28;20144;-88
2021/04/14 13:53:48;;;;;;;4.45;0.90;;;8.10;99.90;;;;;;4879228;28;20085;-90
2021/04/14 13:56:28;;;;;;;2.90;0.60;;;8.60;99.90;;;;;;4887208;28;20604;-89
2021/04/14 13:58:57;;;;;;;2.22;0.43;;;8.50;99.90;;;;;;4887760;28;20539;-89
2021/04/14 14:01:22;;;;;;;4.90;0.65;;;8.80;99.90;;;;;;4889504;28;20085;-92
2021/04/14 14:03:45;;;;;;;1.23;0.40;;;9.30;99.90;;;;;;4888067;28;20081;-91
2021/04/14 14:06:14;;;;;;;1.85;0.40;;;9.40;99.90;;;;;;4887734;28;20096;-89
2021/04/14 14:08:42;;;;;;;3.38;0.80;;;9.40;99.90;;;;;;4890290;28;20073;-87
2021/04/14 14:11:11;;;;;;;1.45;0.73;;;9.30;99.90;;;;;;4890632;28;20074;-88
2021/04/14 14:13:37;;;;;;;1.48;0.60;;;8.80;99.90;;;;;;4886833;28;20085;-87